• Join FlightAware (Why Join?)
  • Login
  • US Flag GB Flag 
03:26 EDT


 

Airport Tracker/Info


-or-


 

Live Flight TrackerFlight Track Log ✈ EJA122 ✈ 26-Apr-2013 ✈ KTEB - KIND

Flight Track Log - Related Links

Times and Time Zones

All times are in EDT time to prevent confusion due to time zone crossing. See the EJA122 flight status page for this flight to view local times or setup timezone preferences in your user account.

Time Position Orientation Groundspeed Altitude Reporting Facility
EDT Latitude Longitude Course Direction KTS MPH feet Rate Location/Type
11:32 40.9167 -74.0667 270° West 198 228 2,000  Level New York TRACON
11:33 40.9167 -74.1500 270° West 205 236 3,900 1,920 Climbing New York TRACON
11:36 40.9072 -74.3569 267° West 250 288 8,800 1,560 Climbing New York Center
11:37 40.8975 -74.4661 263° West 260 299 9,500 1,680 Climbing New York Center
11:38 40.8867 -74.5506 260° West 266 306 12,200 2,880 Climbing New York Center
11:39 40.8706 -74.6594 259° West 276 318 15,300 2,460 Climbing New York Center
11:40 40.8569 -74.7547 259° West 287 330 17,200 1,740 Climbing New York Center
11:41 40.8383 -74.8742 258° West 307 353 18,900 1,680 Climbing New York Center
11:42 40.8139 -74.9769 253° West 314 361 20,700 1,860 Climbing New York Center
11:43 40.7867 -75.0906 252° West 319 367 22,700 1,740 Climbing New York Center
11:44 40.7594 -75.2064 253° West 325 374 24,200 1,500 Climbing New York Center
11:45 40.7278 -75.3278 251° West 336 387 25,700 1,200 Climbing New York Center
11:46 40.6958 -75.4542 252° West 346 398 26,700 960 Climbing New York Center
11:47 40.6658 -75.5808 253° West 363 418 27,700 960 Climbing New York Center
11:48 40.6311 -75.7150 251° West 374 430 28,700 900 Climbing New York Center
11:49 40.5944 -75.8408 249° West 379 436 29,600 960 Climbing New York Center
11:50 40.5408 -75.9681 241° Southwest 385 443 30,700 1,020 Climbing New York Center
11:51 40.4939 -76.0900 243° Southwest 392 451 31,700 960 Climbing New York Center
11:52 40.4481 -76.2256 246° West 398 458 32,700 960 Climbing New York Center
11:53 40.3986 -76.3472 242° Southwest 392 451 33,700 600 Climbing New York Center
11:54 40.3653 -76.4781 252° West 392 451 34,000 60 Climbing New York Center
11:56 40.3333 -76.7450 261° West 379 436 34,000  Level New York Center
11:57 40.3200 -76.8828 263° West 385 443 34,000  Level New York Center
11:58 40.3025 -77.0200 261° West 385 443 34,000  Level New York Center
12:00 40.2658 -77.3694 262° West 374 430 34,000  Level Cleveland Center
12:01 40.2486 -77.5092 261° West 379 436 34,000  Level Cleveland Center
12:02 40.2317 -77.6486 261° West 379 436 34,000  Level Cleveland Center
12:03 40.2142 -77.7853 261° West 384 442 34,000  Level Cleveland Center
12:04 40.1967 -77.9303 261° West 389 448 34,000  Level Cleveland Center
12:05 40.1792 -78.0667 261° West 396 456 34,000  Level Cleveland Center
12:06 40.1611 -78.2006 260° West 389 448 34,000  Level Cleveland Center
12:07 40.1431 -78.3369 260° West 389 448 34,000  Level Cleveland Center
12:08 40.1269 -78.4733 261° West 389 448 34,000  Level Cleveland Center
12:09 40.1083 -78.6097 260° West 389 448 34,000  Level Cleveland Center
12:10 40.0919 -78.7458 261° West 389 448 34,000  Level Cleveland Center
12:11 40.0733 -78.8819 260° West 389 448 34,000  Level Cleveland Center
12:12 40.0564 -79.0153 261° West 389 448 34,000  Level Cleveland Center
12:13 40.0414 -79.1511 262° West 389 448 34,000  Level Cleveland Center
12:14 40.0222 -79.2844 259° West 389 448 34,000  Level Cleveland Center
12:16 40.0083 -79.5531 266° West 382 440 34,000  Level Cleveland Center
12:17 40.0094 -79.6833 271° West 371 427 34,000  Level Cleveland Center
12:18 40.0125 -79.8161 272° West 371 427 34,000  Level Cleveland Center
12:19 40.0111 -79.9514 269° West 366 421 34,000  Level Cleveland Center
12:20 40.0139 -80.0789 272° West 366 421 34,000  Level Cleveland Center
12:21 40.0144 -80.2117 270° West 366 421 34,000  Level Cleveland Center
12:22 40.0147 -80.3444 270° West 366 421 34,000  Level Cleveland Center
12:23 40.0192 -80.4772 273° West 366 421 34,000  Level Cleveland Center
12:24 40.0192 -80.5967 270° West 366 421 34,000  Level Cleveland Center
12:25 40.0211 -80.7294 271° West 366 421 34,000  Level Cleveland Center
12:26 40.0189 -80.8622 269° West 366 421 34,000  Level Cleveland Center
12:28 40.0119 -81.1525 268° West 349 402 34,000  Level Indianapolis Center
12:29 40.0092 -81.2803 268° West 349 402 34,000  Level Indianapolis Center
12:30 40.0061 -81.4306 269° West 353 406 34,000  Level Indianapolis Center
12:31 40.0042 -81.5586 269° West 351 404 34,000  Level Indianapolis Center
12:32 40.0017 -81.6875 269° West 351 404 34,000  Level Indianapolis Center
12:33 39.9986 -81.8256 268° West 356 410 34,000  Level Indianapolis Center
12:35 39.9967 -81.9539 269° West 351 404 34,000  Level Indianapolis Center
12:36 39.9933 -82.0831 268° West 354 407 34,000  Level Indianapolis Center
12:37 39.9900 -82.2108 268° West 351 404 34,000  Level Indianapolis Center
12:38 39.9867 -82.3397 268° West 353 406 34,000  Level Indianapolis Center
12:39 39.9828 -82.4672 268° West 349 402 34,000  Level Indianapolis Center
12:40 39.9794 -82.5947 268° West 348 400 34,000 -420 Level Indianapolis Center
12:41 39.9764 -82.7208 268° West 347 399 33,200 -900 Descending Indianapolis Center
12:42 39.9717 -82.8669 268° West 346 398 32,200 -960 Descending Indianapolis Center
12:43 39.9678 -82.9956 268° West 353 406 31,300 -900 Descending Indianapolis Center
12:44 39.9642 -83.1242 268° West 354 407 30,400 -660 Descending Indianapolis Center
12:45 39.9669 -83.2519 272° West 353 406 30,000 -240 Descending Indianapolis Center
12:46 39.9733 -83.3822 274° West 360 414 30,000  Level Indianapolis Center
12:47 39.9797 -83.5317 273° West 358 412 30,000  Level Indianapolis Center
12:48 39.9861 -83.6594 274° West 355 409 30,000  Level Indianapolis Center
12:49 39.9917 -83.7881 273° West 355 409 30,000  Level Indianapolis Center
12:50 40.0067 -83.9189 279° West 363 418 30,000 -60 Level Indianapolis Center
12:51 40.0286 -84.0503 282° West 367 422 29,900 -240 Descending Indianapolis Center
12:52 40.0483 -84.1783 281° West 361 415 29,500 -1,140 Descending Indianapolis Center
12:53 40.0739 -84.3350 282° West 375 432 27,600 -1,680 Descending Indianapolis Center
12:54 40.0956 -84.4703 282° West 378 435 26,100 -1,020 Descending Indianapolis Center
12:55 40.1167 -84.6044 282° West 375 432 25,500 -1,020 Descending Indianapolis Center
12:56 40.1372 -84.7397 281° West 377 434 24,000 -900 Descending Indianapolis Center
12:57 40.1583 -84.8756 282° West 377 434 23,700 -1,200 Descending Indianapolis Center
12:58 40.1800 -85.0147 282° West 374 430 21,600 -1,980 Descending Indianapolis Center
12:59 40.2022 -85.1494 282° West 377 434 19,700 -1,800 Descending Indianapolis Center
13:00 40.2219 -85.2817 281° West 371 427 18,000 -1,980 Descending Indianapolis Center
13:01 40.2203 -85.4325 269° West 371 427 15,700 -2,040 Descending Indianapolis Center
13:02 40.1744 -85.5425 241° Southwest 343 395 13,900 -1,800 Descending Indianapolis Center
13:03 40.1306 -85.6442 241° Southwest 322 371 12,100 -1,860 Descending Indianapolis Center
13:04 40.1167 -85.6833 245° Southwest 301 346 11,200 -1,560 Descending Indianapolis TRACON
13:04 40.0900 -85.7372 237° Southwest 297 342 10,500 -1,260 Descending Indianapolis Center
13:06 40.0525 -85.8258 241° Southwest 282 325 9,200 -1,260 Descending Indianapolis Center
13:07 40.0125 -85.9103 238° Southwest 277 319 7,900 -1,260 Descending Indianapolis Center
13:08 39.9581 -85.9769 223° Southwest 236 272 6,700 -1,080 Descending Indianapolis Center
13:09 39.9114 -86.0358 224° Southwest 231 266 5,700 -1,080 Descending Indianapolis Center
13:11 39.8167 -86.1667 227° Southwest 214 246 3,300 -900 Descending Indianapolis TRACON
13:12 39.7667 -86.2167 218° Southwest 186 214 2,800 -840 Descending Indianapolis TRACON
13:13 39.7500 -86.2500 237° Southwest 125 144 1,700 -720 Descending Indianapolis TRACON
13:15 39.7114 -86.2889 218° Southwest 82 94 800 -360 Descending Indianapolis Center
13:16 39.7136 -86.2842 59° Northeast 33 38 800  Level Indianapolis Center
13:17 39.7203 -86.2756 45° Northeast 27 31 800  Level Indianapolis Center
13:18 39.7247 -86.2697 45° Northeast 26 30 800  Level Indianapolis Center
13:19 39.7281 -86.2694 North 24 28 800  Level Indianapolis Center